Time;durP1;ratioP1;P1;durP2;ratioP2;P2;SDS_P1;SDS_P2;PMS_P1;PMS_P2;Temp;Humidity;BMP_temperature;BMP_pressure;BME280_temperature;BME280_humidity;BME280_pressure;Samples;Min_cycle;Max_cycle;Signal;HPM_P1;HPM_P2
2022/01/28 00:00:37;;;;;;;12.70;3.60;;;;;;;5.14;100.00;102389.19;4977670;28;20420;-83
2022/01/28 00:03:10;;;;;;;18.53;3.70;;;;;;;5.39;100.00;102437.75;4976405;28;20503;-79
2022/01/28 00:05:38;;;;;;;13.83;4.40;;;;;;;4.99;100.00;102370.00;4976581;28;20989;-85
2022/01/28 00:08:04;;;;;;;22.20;3.90;;;;;;;5.44;100.00;102447.03;4975944;28;20504;-80
2022/01/28 00:10:32;;;;;;;12.27;3.40;;;;;;;4.59;100.00;102321.88;4979216;28;20445;-77
2022/01/28 00:15:30;;;;;;;23.77;4.23;;;;;;;4.34;100.00;102288.47;4975629;28;21056;-75
2022/01/28 00:39:08;;;;;;;19.23;4.30;;;;;;;5.52;100.00;102477.50;5013485;28;20455;-78
2022/01/28 00:41:34;;;;;;;13.87;3.63;;;;;;;5.48;100.00;102478.72;5010636;28;20447;-78
2022/01/28 00:43:59;;;;;;;12.50;2.67;;;;;;;5.46;100.00;102470.84;5009692;28;20601;-78
2022/01/28 00:46:24;;;;;;;16.30;3.97;;;;;;;5.24;100.00;102473.59;5004956;28;20209;-77
2022/01/28 00:48:50;;;;;;;9.00;2.70;;;;;;;5.15;100.00;102444.09;5017576;28;20207;-78
2022/01/28 00:51:15;;;;;;;8.73;2.90;;;;;;;5.18;100.00;102459.81;5016817;28;20275;-77
2022/01/28 00:53:40;;;;;;;14.00;3.00;;;;;;;5.37;100.00;102463.63;5012930;28;20196;-78
2022/01/28 00:56:06;;;;;;;8.63;2.20;;;;;;;4.49;100.00;102355.47;4996747;28;20239;-78
2022/01/28 00:58:31;;;;;;;10.70;3.00;;;;;;;5.09;100.00;102427.75;5014813;28;20731;-78
2022/01/28 01:00:57;;;;;;;10.90;2.90;;;;;;;5.16;100.00;102461.72;5013318;28;20185;-76
2022/01/28 01:03:23;;;;;;;19.67;3.40;;;;;;;3.33;100.00;102163.72;5014017;28;20662;-77
2022/01/28 01:05:48;;;;;;;13.47;3.23;;;;;;;5.59;100.00;102521.28;5014154;28;20238;-78
2022/01/28 01:08:14;;;;;;;17.80;3.90;;;;;;;5.08;100.00;102485.44;5010568;28;20217;-78
2022/01/28 01:10:39;;;;;;;12.60;3.53;;;;;;;4.77;100.00;102407.25;5010123;28;20184;-78
2022/01/28 01:13:05;;;;;;;19.50;4.07;;;;;;;5.52;100.00;102531.56;4995226;28;20211;-76
2022/01/28 01:15:36;;;;;;;19.57;5.17;;;;;;;4.61;100.00;102389.03;5014296;28;20196;-77
2022/01/28 01:18:13;;;;;;;19.40;4.50;;;;;;;5.48;100.00;102546.09;5010241;28;20234;-77
2022/01/28 01:23:15;;;;;;;22.40;4.47;;;;;;;5.09;100.00;102503.09;5011728;28;20458;-77
2022/01/28 01:25:47;;;;;;;18.20;3.93;;;;;;;5.50;100.00;102568.13;4995387;28;20838;-76
2022/01/28 01:28:14;;;;;;;14.40;3.80;;;;;;;4.00;100.00;102323.00;5011458;28;20495;-76
2022/01/28 01:30:42;;;;;;;22.13;4.37;;;;;;;5.25;100.00;102520.50;5011993;28;20442;-75
2022/01/28 01:33:08;;;;;;;22.07;4.30;;;;;;;5.61;100.00;102588.53;5013234;28;20460;-77
2022/01/28 01:35:34;;;;;;;22.63;4.37;;;;;;;4.70;100.00;102432.66;5014006;28;20449;-77
2022/01/28 01:38:00;;;;;;;29.00;4.87;;;;;;;5.35;100.00;102532.94;4989315;28;20865;-76
2022/01/28 01:40:35;;;;;;;19.67;4.27;;;;;;;5.27;100.00;102539.84;5013943;28;20538;-76
2022/01/28 01:53:59;;;;;;;13.97;3.70;;;;;;;5.60;100.00;102574.38;5013630;28;20425;-78
2022/01/28 01:56:25;;;;;;;8.93;2.33;;;;;;;5.75;100.00;102574.97;5010442;28;20836;-77
2022/01/28 01:58:50;;;;;;;16.97;2.60;;;;;;;5.34;100.00;102517.09;5008150;28;20451;-77
2022/01/28 02:01:16;;;;;;;14.63;3.00;;;;;;;5.92;100.00;102588.72;5010562;28;20266;-77
2022/01/28 02:03:41;;;;;;;12.00;3.03;;;;;;;5.37;100.00;102531.00;5012637;28;20264;-77
2022/01/28 02:06:07;;;;;;;15.90;3.00;;;;;;;5.99;100.00;102624.56;5012873;28;20196;-76
2022/01/28 02:08:34;;;;;;;14.43;2.90;;;;;;;5.96;100.00;102630.13;5008427;28;21176;-77
2022/01/28 02:11:00;;;;;;;22.67;3.60;;;;;;;5.77;100.00;102606.81;5003051;28;20308;-75
2022/01/28 02:13:27;;;;;;;14.33;3.20;;;;;;;5.85;100.00;102644.31;5008218;28;20546;-76
2022/01/28 02:15:54;;;;;;;12.13;3.10;;;;;;;5.46;100.00;102579.13;4998541;28;21221;-76
2022/01/28 02:18:20;;;;;;;14.43;2.97;;;;;;;5.88;100.00;102676.03;5008914;28;20478;-78
2022/01/28 02:20:49;;;;;;;13.33;3.20;;;;;;;5.84;100.00;102661.25;5003302;28;20446;-73
2022/01/28 02:23:15;;;;;;;8.77;3.00;;;;;;;5.64;100.00;102645.06;5007645;28;20501;-77
2022/01/28 02:25:41;;;;;;;11.07;3.30;;;;;;;5.24;100.00;102591.50;5007693;28;20479;-78
2022/01/28 02:28:10;;;;;;;11.70;2.93;;;;;;;5.81;100.00;102686.31;5009045;28;20200;-77
2022/01/28 02:30:36;;;;;;;16.00;3.13;;;;;;;5.26;100.00;102600.19;5011210;28;20545;-76
2022/01/28 02:33:11;;;;;;;12.70;3.03;;;;;;;5.83;100.00;102688.84;5009282;28;20443;-78
2022/01/28 02:35:38;;;;;;;13.73;3.30;;;;;;;4.34;100.00;102449.66;4991117;28;20199;-76
2022/01/28 02:38:04;;;;;;;16.53;4.10;;;;;;;5.05;100.00;102564.63;5005340;28;21022;-77
2022/01/28 02:40:30;;;;;;;13.57;3.47;;;;;;;5.21;100.00;102597.06;5007414;28;20471;-78
2022/01/28 02:43:16;;;;;;;12.40;2.90;;;;;;;5.02;100.00;102571.03;5013610;28;20204;-78
2022/01/28 02:45:43;;;;;;;15.30;3.20;;;;;;;4.99;100.00;102553.50;5009117;28;20420;-78
2022/01/28 02:48:16;;;;;;;19.13;3.20;;;;;;;5.46;100.00;102627.88;5012289;28;20499;-77
2022/01/28 02:50:52;;;;;;;17.10;3.17;;;;;;;5.57;100.00;102635.88;5012358;28;20431;-78
2022/01/28 02:53:24;;;;;;;11.43;3.20;;;;;;;5.85;100.00;102654.97;5013539;28;20577;-78
2022/01/28 02:55:56;;;;;;;12.53;3.17;;;;;;;5.81;100.00;102680.13;5011220;28;20587;-78
2022/01/28 02:58:24;;;;;;;14.70;3.10;;;;;;;5.95;100.00;102698.56;5010383;28;20448;-77
2022/01/28 03:00:52;;;;;;;11.07;3.27;;;;;;;5.80;100.00;102676.63;5007231;28;20447;-78
2022/01/28 03:03:19;;;;;;;11.03;3.10;;;;;;;5.37;100.00;102636.59;5008884;28;20458;-78
2022/01/28 03:05:45;;;;;;;13.70;3.13;;;;;;;5.66;100.00;102666.22;5011866;28;20439;-78
2022/01/28 03:08:12;;;;;;;13.90;2.80;;;;;;;6.05;100.00;102725.31;5009307;28;20540;-77
2022/01/28 03:15:33;;;;;;;14.33;3.90;;;;;;;5.67;100.00;102681.25;5009282;28;20440;-79
2022/01/28 03:18:12;;;;;;;15.43;3.27;;;;;;;4.17;100.00;102429.72;4999999;28;20462;-78
2022/01/28 03:20:57;;;;;;;22.80;4.20;;;;;;;5.87;100.00;102747.09;5006545;28;20426;-76
2022/01/28 03:23:23;;;;;;;16.37;4.30;;;;;;;5.97;100.00;102749.91;5006322;28;20431;-77
2022/01/28 03:25:49;;;;;;;16.20;3.83;;;;;;;5.65;100.00;102688.50;5011510;28;20440;-77
2022/01/28 03:28:19;;;;;;;17.43;4.03;;;;;;;4.94;100.00;102597.38;5004883;28;20231;-77
2022/01/28 03:30:45;;;;;;;13.07;3.60;;;;;;;5.12;100.00;102638.53;5011923;28;21011;-77
2022/01/28 03:33:10;;;;;;;12.17;3.37;;;;;;;5.93;100.00;102763.53;5015740;28;20438;-77
2022/01/28 03:35:36;;;;;;;13.63;2.83;;;;;;;5.06;100.00;102619.50;5015094;28;20184;-78
2022/01/28 03:38:04;;;;;;;11.33;2.67;;;;;;;6.07;100.00;102773.97;5009627;28;20272;-76
2022/01/28 03:40:36;;;;;;;15.30;2.97;;;;;;;5.73;100.00;102728.69;5006537;28;20222;-76
2022/01/28 03:43:03;;;;;;;14.77;3.43;;;;;;;6.08;100.00;102781.03;5007222;28;20427;-76
2022/01/28 03:45:29;;;;;;;15.03;3.13;;;;;;;5.42;100.00;102661.88;5008020;28;20452;-76
2022/01/28 03:47:54;;;;;;;13.27;2.87;;;;;;;5.09;100.00;102633.44;5008604;28;20526;-76
2022/01/28 03:50:20;;;;;;;14.80;3.57;;;;;;;5.36;100.00;102675.66;4992617;28;20688;-77
2022/01/28 03:52:45;;;;;;;15.60;3.37;;;;;;;5.18;100.00;102655.81;5008936;28;20181;-77
2022/01/28 03:55:11;;;;;;;18.07;3.63;;;;;;;4.38;100.00;102518.38;5009160;28;20286;-77
2022/01/28 03:57:36;;;;;;;12.97;3.23;;;;;;;5.96;100.00;102785.50;5005755;28;20177;-77
2022/01/28 04:00:05;;;;;;;9.50;2.73;;;;;;;6.02;100.00;102785.03;5009344;28;20188;-78
2022/01/28 04:02:33;;;;;;;11.73;2.97;;;;;;;5.77;100.00;102740.78;5002372;28;20184;-78
2022/01/28 04:12:55;;;;;;;15.07;2.53;;;;;;;5.74;100.00;102762.31;5007025;28;21024;-77
2022/01/28 04:17:50;;;;;;;14.10;3.20;;;;;;;5.01;100.00;102638.50;5003189;28;20181;-77
2022/01/28 04:20:16;;;;;;;11.13;3.07;;;;;;;5.55;100.00;102716.81;5007678;28;20447;-77
2022/01/28 04:22:41;;;;;;;13.33;3.73;;;;;;;4.63;100.00;102615.69;5006020;28;20440;-75
2022/01/28 04:25:07;;;;;;;17.07;2.93;;;;;;;5.90;100.00;102828.53;5012848;28;20182;-76
2022/01/28 04:27:33;;;;;;;14.23;2.97;;;;;;;5.88;100.00;102798.53;5009564;28;20209;-78
2022/01/28 04:29:58;;;;;;;13.67;3.90;;;;;;;5.13;100.00;102690.75;5010978;28;20633;-77
2022/01/28 04:32:26;;;;;;;16.17;3.53;;;;;;;4.46;100.00;102590.41;5012333;28;20283;-77
2022/01/28 04:34:53;;;;;;;12.10;2.93;;;;;;;5.09;100.00;102683.97;5010777;28;20176;-77
2022/01/28 04:37:33;;;;;;;16.87;3.93;;;;;;;5.58;100.00;102793.75;5012628;28;20916;-77
2022/01/28 04:40:16;;;;;;;12.00;3.17;;;;;;;5.81;100.00;102845.25;5008530;28;21014;-76
2022/01/28 04:50:58;;;;;;;14.63;3.43;;;;;;;5.51;100.00;102797.88;5008508;28;20986;-77
2022/01/28 04:53:49;;;;;;;12.53;2.47;;;;;;;5.97;100.00;102845.78;5014870;28;20438;-77
2022/01/28 05:03:59;;;;;;;16.73;3.50;;;;;;;5.97;100.00;102859.13;5014928;28;20526;-76
2022/01/28 05:11:51;;;;;;;22.50;4.70;;;;;;;6.10;100.00;102923.81;5010917;28;20450;-77
2022/01/28 05:27:43;;;;;;;20.13;3.90;;;;;;;5.70;100.00;102883.38;4973336;28;21167;-77
2022/01/28 05:30:09;;;;;;;16.37;3.93;;;;;;;5.98;100.00;102924.72;5009820;28;20429;-76
2022/01/28 05:32:34;;;;;;;16.97;4.40;;;;;;;5.06;100.00;102808.34;5000678;28;20431;-76
2022/01/28 05:34:59;;;;;;;14.50;3.90;;;;;;;5.42;100.00;102857.97;5010257;28;20309;-77
2022/01/28 05:37:25;;;;;;;24.43;4.50;;;;;;;5.81;100.00;102928.63;5007349;28;20185;-76
2022/01/28 05:39:50;;;;;;;25.57;4.27;;;;;;;5.67;100.00;102878.28;4989422;28;20275;-76
2022/01/28 05:42:16;;;;;;;17.47;3.60;;;;;;;5.06;100.00;102789.75;5007333;28;20185;-78
2022/01/28 05:44:41;;;;;;;16.60;3.80;;;;;;;5.49;100.00;102855.69;5006093;28;20776;-77
2022/01/28 05:47:07;;;;;;;15.90;4.00;;;;;;;5.96;100.00;102929.34;4977441;28;20208;-77
2022/01/28 05:49:32;;;;;;;17.37;3.43;;;;;;;5.18;100.00;102820.75;4998017;28;20208;-77
2022/01/28 05:51:58;;;;;;;17.70;4.50;;;;;;;5.60;100.00;102885.84;4996307;28;20254;-77
2022/01/28 05:54:23;;;;;;;23.37;5.30;;;;;;;5.09;100.00;102826.75;4978831;28;20614;-77
2022/01/28 05:56:49;;;;;;;24.83;5.80;;;;;;;4.41;100.00;102719.25;4996660;28;20271;-78
2022/01/28 05:59:15;;;;;;;21.50;4.73;;;;;;;6.03;100.00;102978.50;5006364;28;20719;-77
2022/01/28 06:01:40;;;;;;;23.87;4.87;;;;;;;5.96;100.00;102971.97;5005275;28;20193;-81
2022/01/28 06:04:05;;;;;;;16.80;4.73;;;;;;;5.04;100.00;102840.41;5009209;28;20251;-79
2022/01/28 06:06:32;;;;;;;19.63;4.33;;;;;;;5.61;100.00;102898.22;5006670;28;20208;-80
2022/01/28 06:08:58;;;;;;;20.83;4.93;;;;;;;5.57;100.00;102891.41;5009234;28;20227;-78
2022/01/28 06:11:24;;;;;;;16.23;4.07;;;;;;;5.69;100.00;102910.09;5012192;28;20441;-79
2022/01/28 06:13:51;;;;;;;17.30;3.93;;;;;;;5.55;100.00;102893.34;4995249;28;20414;-79
2022/01/28 06:16:17;;;;;;;22.80;4.37;;;;;;;5.93;100.00;103011.25;5005306;28;20727;-78
2022/01/28 06:18:43;;;;;;;20.60;4.63;;;;;;;5.43;100.00;102923.53;5004473;28;20693;-80
2022/01/28 06:21:09;;;;;;;15.73;3.87;;;;;;;5.40;100.00;102899.81;4990890;28;20903;-77
2022/01/28 06:23:35;;;;;;;15.70;4.10;;;;;;;5.49;100.00;102901.78;5008260;28;20444;-79
2022/01/28 06:26:01;;;;;;;18.27;4.30;;;;;;;5.15;100.00;102876.84;5009730;28;20637;-79
2022/01/28 06:28:26;;;;;;;21.57;4.43;;;;;;;6.03;100.00;103002.50;5002952;28;20479;-80
2022/01/28 06:30:52;;;;;;;22.67;4.67;;;;;;;5.26;100.00;102892.00;5005346;28;20239;-79
2022/01/28 06:33:18;;;;;;;16.67;4.10;;;;;;;5.23;100.00;102877.13;5008480;28;20184;-80
2022/01/28 06:35:45;;;;;;;16.83;3.87;;;;;;;5.28;100.00;102906.91;5007616;28;20497;-81
2022/01/28 06:38:11;;;;;;;18.10;3.73;;;;;;;6.10;100.00;103011.72;5002884;28;20200;-78
2022/01/28 06:40:36;;;;;;;18.97;4.40;;;;;;;5.54;100.00;102968.84;5006986;28;20443;-77
2022/01/28 06:43:02;;;;;;;12.77;3.70;;;;;;;5.79;100.00;103031.78;5005260;28;20811;-76
2022/01/28 06:45:27;;;;;;;18.97;4.57;;;;;;;5.33;100.00;102920.72;5001990;28;20189;-77
2022/01/28 06:47:53;;;;;;;20.77;4.20;;;;;;;4.95;100.00;102881.81;5004211;28;20521;-77
2022/01/28 06:50:18;;;;;;;15.43;3.93;;;;;;;5.96;100.00;103045.69;5005099;28;20668;-75
2022/01/28 06:52:44;;;;;;;17.90;4.30;;;;;;;5.19;100.00;102902.25;4983163;28;20176;-76
2022/01/28 06:55:12;;;;;;;22.10;5.23;;;;;;;5.97;100.00;103047.41;5010118;28;20193;-77
2022/01/28 06:57:38;;;;;;;16.87;4.10;;;;;;;5.93;100.00;103046.78;4999869;28;20181;-79
2022/01/28 07:00:06;;;;;;;14.13;3.60;;;;;;;5.09;100.00;102898.56;5009016;28;20785;-77
2022/01/28 07:02:31;;;;;;;16.70;3.90;;;;;;;6.05;100.00;103037.88;5004050;28;20188;-77
2022/01/28 07:04:56;;;;;;;17.67;3.70;;;;;;;5.78;100.00;103027.41;5006304;28;20824;-77
2022/01/28 07:07:24;;;;;;;17.67;3.57;;;;;;;5.79;100.00;103034.47;4994687;28;20216;-79
2022/01/28 07:09:50;;;;;;;9.93;3.40;;;;;;;5.93;100.00;103057.44;5020351;22;20232;-72
2022/01/28 07:12:16;;;;;;;12.93;3.40;;;;;;;5.93;100.00;103049.44;5016316;28;20458;-74
2022/01/28 07:14:41;;;;;;;14.33;3.07;;;;;;;5.95;100.00;103051.97;5018571;28;20911;-73
2022/01/28 07:17:07;;;;;;;12.30;3.20;;;;;;;6.05;100.00;103045.03;5013043;28;20226;-73
2022/01/28 07:19:32;;;;;;;13.70;3.40;;;;;;;4.54;100.00;102844.91;5014794;28;20215;-73
2022/01/28 07:21:58;;;;;;;13.77;3.00;;;;;;;5.24;100.00;102955.16;5013357;28;20199;-74
2022/01/28 07:24:24;;;;;;;14.77;2.83;;;;;;;5.99;100.00;103054.31;5015274;28;20699;-74
2022/01/28 07:26:49;;;;;;;11.80;3.70;;;;;;;6.05;100.00;103063.66;5017526;28;20711;-73
2022/01/28 07:29:14;;;;;;;14.63;2.97;;;;;;;6.11;100.00;103080.03;5015054;28;20266;-73
2022/01/28 07:31:41;;;;;;;14.10;3.80;;;;;;;6.00;100.00;103024.03;5017007;28;20250;-73
2022/01/28 07:34:06;;;;;;;12.67;3.30;;;;;;;6.08;100.00;103072.28;5015577;28;20556;-74
2022/01/28 07:36:33;;;;;;;14.60;3.40;;;;;;;5.56;100.00;102988.22;5015487;28;20434;-74
2022/01/28 07:38:59;;;;;;;13.70;2.80;;;;;;;6.06;100.00;103068.88;5009038;28;20368;-74
2022/01/28 07:41:25;;;;;;;20.07;3.00;;;;;;;6.02;100.00;103058.56;5015602;28;20470;-74
2022/01/28 07:43:50;;;;;;;15.50;3.37;;;;;;;5.57;100.00;102987.25;5014201;28;20646;-73
2022/01/28 07:46:16;;;;;;;12.27;3.30;;;;;;;6.19;100.00;103084.81;5013543;28;20446;-73
2022/01/28 07:48:41;;;;;;;15.80;3.53;;;;;;;6.04;100.00;103061.94;5011544;28;20227;-74
2022/01/28 07:51:07;;;;;;;17.87;3.30;;;;;;;6.08;100.00;103074.94;5015610;28;20192;-74
2022/01/28 07:53:32;;;;;;;13.50;3.30;;;;;;;5.55;100.00;102988.31;5017122;28;20196;-73
2022/01/28 07:55:58;;;;;;;13.60;3.40;;;;;;;4.79;100.00;102859.13;5013377;28;20216;-74
2022/01/28 07:58:23;;;;;;;16.80;3.57;;;;;;;6.40;100.00;103111.66;5011102;28;20234;-74
2022/01/28 08:00:48;;;;;;;14.77;4.00;;;;;;;6.13;100.00;103084.38;5007203;28;20200;-74
2022/01/28 08:03:14;;;;;;;19.60;4.00;;;;;;;6.08;100.00;103098.06;5009953;28;20291;-73
2022/01/28 08:05:39;;;;;;;12.47;3.80;;;;;;;6.30;100.00;103115.97;4999417;28;20203;-73
2022/01/28 08:08:07;;;;;;;21.73;3.77;;;;;;;6.08;100.00;103104.25;5009808;28;20608;-72
2022/01/28 08:10:33;;;;;;;12.37;2.67;;;;;;;6.05;100.00;103106.28;5010545;28;20203;-73
2022/01/28 08:13:02;;;;;;;20.20;4.10;;;;;;;5.96;100.00;103104.28;5011088;28;20917;-73
2022/01/28 08:15:27;;;;;;;11.63;3.73;;;;;;;5.98;100.00;103083.72;5000216;28;20204;-73
2022/01/28 08:17:53;;;;;;;19.37;3.50;;;;;;;6.21;100.00;103121.97;5019372;28;20818;-73
2022/01/28 08:20:18;;;;;;;20.00;3.80;;;;;;;5.76;100.00;103047.16;5012638;28;20199;-72
2022/01/28 08:22:54;;;;;;;20.47;4.23;;;;;;;5.65;100.00;103046.13;5000274;28;20568;-73
2022/01/28 08:25:22;;;;;;;14.70;3.57;;;;;;;6.37;100.00;103151.03;5014713;28;20187;-73
2022/01/28 08:27:48;;;;;;;19.80;4.03;;;;;;;6.14;100.00;103136.75;5015117;28;20494;-73
2022/01/28 08:30:16;;;;;;;24.63;3.93;;;;;;;6.08;100.00;103111.41;5013783;28;20446;-73
2022/01/28 08:32:42;;;;;;;14.63;3.97;;;;;;;6.25;100.00;103169.63;5016762;28;21137;-73
2022/01/28 08:35:08;;;;;;;22.90;3.80;;;;;;;5.64;100.00;103081.72;5000638;28;20437;-73
2022/01/28 08:37:33;;;;;;;16.80;3.77;;;;;;;6.34;100.00;103165.44;5000199;28;20435;-73
2022/01/28 08:40:00;;;;;;;21.83;4.40;;;;;;;6.18;100.00;103179.03;5018399;28;20186;-73
2022/01/28 08:42:27;;;;;;;20.57;3.90;;;;;;;6.14;100.00;103160.72;5019961;28;20208;-74
2022/01/28 08:44:52;;;;;;;18.60;4.17;;;;;;;6.23;100.00;103194.69;5012580;28;21139;-72
2022/01/28 08:47:17;;;;;;;31.33;6.13;;;;;;;6.06;100.00;103169.25;5015186;28;20463;-73
2022/01/28 08:49:43;;;;;;;16.50;4.60;;;;;;;5.78;100.00;103119.78;5013851;28;20278;-73
2022/01/28 08:52:08;;;;;;;14.17;4.90;;;;;;;5.85;100.00;103121.88;5015229;28;20232;-73
2022/01/28 08:54:33;;;;;;;17.93;4.10;;;;;;;6.20;100.00;103171.78;5013387;28;20185;-72
2022/01/28 08:56:59;;;;;;;16.80;3.83;;;;;;;6.42;100.00;103202.16;5016145;28;20188;-73
2022/01/28 08:59:24;;;;;;;14.60;3.73;;;;;;;5.97;100.00;103132.66;4998100;28;20204;-73
2022/01/28 09:01:49;;;;;;;19.93;3.77;;;;;;;5.97;100.00;103129.97;4992592;28;20188;-73
2022/01/28 09:04:15;;;;;;;18.60;3.40;;;;;;;5.85;100.00;103113.06;5015295;28;20577;-73
2022/01/28 09:06:40;;;;;;;17.93;4.60;;;;;;;6.60;100.00;103202.63;4998290;28;20624;-72
2022/01/28 09:09:07;;;;;;;14.00;3.23;;;;;;;6.61;100.00;103215.84;5015207;28;20220;-71
2022/01/28 09:13:57;;;;;;;16.67;3.87;;;;;;;6.69;100.00;103207.28;5015316;28;20440;-72
2022/01/28 09:16:23;;;;;;;15.50;4.10;;;;;;;6.61;100.00;103212.31;5017898;28;20668;-72
2022/01/28 09:18:48;;;;;;;15.40;3.57;;;;;;;6.64;100.00;103207.59;5015712;28;20216;-72
2022/01/28 09:21:14;;;;;;;12.83;2.50;;;;;;;6.42;100.00;103187.03;5016700;28;20290;-72
2022/01/28 09:23:40;;;;;;;13.70;3.73;;;;;;;6.21;100.00;103175.28;5017963;28;20242;-73
2022/01/28 09:26:05;;;;;;;12.00;2.70;;;;;;;6.61;100.00;103234.50;5016561;28;20208;-72
2022/01/28 09:28:30;;;;;;;13.30;3.27;;;;;;;6.62;100.00;103246.00;5015845;28;21066;-71
2022/01/28 09:30:57;;;;;;;13.70;3.50;;;;;;;6.63;100.00;103253.91;5016766;28;20894;-71
2022/01/28 09:33:23;;;;;;;13.73;3.23;;;;;;;6.17;100.00;103213.78;5015425;28;20180;-71
2022/01/28 09:35:49;;;;;;;11.30;3.17;;;;;;;6.64;100.00;103255.59;5010029;28;20951;-72
2022/01/28 09:38:16;;;;;;;18.53;3.80;;;;;;;6.68;100.00;103262.44;5010891;28;20458;-72
2022/01/28 09:40:42;;;;;;;11.33;2.80;;;;;;;6.73;100.00;103267.41;5017474;28;20533;-71
2022/01/28 09:43:08;;;;;;;15.53;3.40;;;;;;;6.47;100.00;103216.84;5015137;28;20469;-71
2022/01/28 09:45:35;;;;;;;15.23;3.37;;;;;;;6.72;100.00;103271.06;5016763;28;20656;-72
2022/01/28 09:48:01;;;;;;;19.63;5.30;;;;;;;6.61;100.00;103255.84;5013775;28;20501;-71
2022/01/28 09:50:31;;;;;;;15.60;3.70;;;;;;;6.29;100.00;103219.06;5013692;28;20925;-72
2022/01/28 09:52:57;;;;;;;14.80;3.47;;;;;;;6.34;100.00;103210.75;5016024;28;20527;-72
2022/01/28 09:55:25;;;;;;;12.27;2.77;;;;;;;6.65;100.00;103251.13;5015805;28;20490;-72
2022/01/28 09:57:53;;;;;;;17.90;4.10;;;;;;;6.61;100.00;103250.50;5010407;28;20463;-71
2022/01/28 10:00:22;;;;;;;21.80;3.80;;;;;;;6.75;100.00;103254.81;5015519;28;20446;-71
2022/01/28 10:02:47;;;;;;;20.00;3.30;;;;;;;6.84;100.00;103269.28;5016372;28;20435;-72
2022/01/28 10:05:23;;;;;;;12.10;4.40;;;;;;;6.56;100.00;103253.50;5015428;28;20438;-73
2022/01/28 10:08:06;;;;;;;19.17;4.17;;;;;;;6.78;100.00;103273.25;5012693;28;20208;-71
2022/01/28 10:11:09;;;;;;;12.57;2.93;;;;;;;6.68;100.00;103285.56;5013054;28;20505;-72
2022/01/28 10:13:48;;;;;;;15.40;3.20;;;;;;;6.76;100.00;103281.34;5019255;28;20488;-72
2022/01/28 10:16:29;;;;;;;14.30;3.27;;;;;;;6.93;100.00;103287.25;5009292;28;20455;-72
2022/01/28 10:19:09;;;;;;;11.17;3.30;;;;;;;6.85;100.00;103297.66;5013993;28;20542;-71
2022/01/28 10:21:43;;;;;;;16.40;3.90;;;;;;;6.67;100.00;103282.03;5018090;28;20477;-71
2022/01/28 10:24:17;;;;;;;20.13;3.40;;;;;;;6.68;100.00;103272.22;5018715;28;20450;-72
2022/01/28 10:26:50;;;;;;;25.20;3.80;;;;;;;6.81;100.00;103306.84;4997857;28;20981;-71
2022/01/28 10:29:30;;;;;;;15.73;3.00;;;;;;;6.79;100.00;103313.13;5017222;28;20469;-72
2022/01/28 10:32:04;;;;;;;17.87;3.77;;;;;;;6.81;100.00;103278.34;5013594;28;20928;-72
2022/01/28 10:34:34;;;;;;;10.13;3.10;;;;;;;6.99;100.00;103322.34;5016479;28;20500;-71
2022/01/28 10:37:23;;;;;;;16.20;3.27;;;;;;;6.91;100.00;103313.19;4988896;28;20435;-72
2022/01/28 10:40:00;;;;;;;19.63;3.13;;;;;;;6.91;100.00;103322.03;5007728;28;20505;-71
2022/01/28 10:42:25;;;;;;;13.07;2.63;;;;;;;7.07;100.00;103310.25;5009856;28;20461;-72
2022/01/28 10:45:04;;;;;;;9.33;2.50;;;;;;;6.99;100.00;103319.66;5016967;28;21142;-72
2022/01/28 10:47:30;;;;;;;16.07;3.43;;;;;;;7.00;100.00;103318.72;5014690;28;20625;-71
2022/01/28 10:49:56;;;;;;;18.43;3.63;;;;;;;6.85;100.00;103274.47;5001697;28;20466;-72
2022/01/28 10:52:30;;;;;;;15.80;3.30;;;;;;;7.16;100.00;103304.22;5015619;28;20246;-71
2022/01/28 10:54:57;;;;;;;21.90;4.60;;;;;;;7.07;100.00;103289.75;5022443;28;20428;-71
2022/01/28 10:57:22;;;;;;;18.73;4.43;;;;;;;6.57;100.00;103284.56;5016279;28;20889;-71
2022/01/28 10:59:48;;;;;;;13.30;3.57;;;;;;;6.54;100.00;103247.44;5018866;28;20480;-72
2022/01/28 11:02:14;;;;;;;16.10;3.13;;;;;;;7.03;100.00;103301.63;5015290;28;20184;-71
2022/01/28 11:04:41;;;;;;;12.13;2.83;;;;;;;6.81;100.00;103281.03;5020242;28;20507;-71
2022/01/28 11:07:06;;;;;;;32.70;4.93;;;;;;;6.63;100.00;103264.56;5014971;28;20288;-71
2022/01/28 11:09:31;;;;;;;26.07;5.63;;;;;;;6.80;100.00;103276.66;5013095;28;20834;-71
2022/01/28 11:11:58;;;;;;;21.10;3.93;;;;;;;7.01;100.00;103299.06;5006061;28;20243;-71
2022/01/28 11:14:25;;;;;;;26.03;4.83;;;;;;;6.84;100.00;103275.47;5014498;28;20887;-72
2022/01/28 11:16:50;;;;;;;21.37;4.50;;;;;;;6.97;100.00;103294.94;5013562;28;20438;-71
2022/01/28 11:19:20;;;;;;;19.53;3.50;;;;;;;6.87;100.00;103301.06;5018575;28;21005;-71
2022/01/28 11:22:23;;;;;;;23.43;4.70;;;;;;;6.93;100.00;103274.75;5015344;28;20539;-71
2022/01/28 11:25:08;;;;;;;11.03;2.97;;;;;;;7.16;100.00;103294.38;5013417;28;20443;-72
2022/01/28 11:27:36;;;;;;;21.23;4.20;;;;;;;6.73;100.00;103225.56;5014761;28;20505;-72
2022/01/28 11:30:22;;;;;;;14.37;3.57;;;;;;;7.14;100.00;103258.94;5009371;28;21228;-72
2022/01/28 11:33:00;;;;;;;14.30;3.40;;;;;;;7.12;100.00;103257.38;5013670;28;20444;-71
2022/01/28 11:35:38;;;;;;;10.20;2.50;;;;;;;7.57;100.00;103273.47;5016080;28;20501;-72
2022/01/28 11:38:27;;;;;;;15.80;3.33;;;;;;;7.42;100.00;103256.84;5009699;28;20447;-71
2022/01/28 11:40:56;;;;;;;18.63;3.20;;;;;;;7.35;100.00;103283.16;5013398;28;21156;-71
2022/01/28 11:43:27;;;;;;;16.20;3.10;;;;;;;7.28;100.00;103273.06;5014857;28;20454;-71
2022/01/28 11:46:09;;;;;;;20.10;3.80;;;;;;;7.11;100.00;103258.34;5017307;28;20444;-71
2022/01/28 11:49:07;;;;;;;10.43;3.17;;;;;;;7.45;100.00;103276.13;5014995;28;20868;-71
2022/01/28 11:51:33;;;;;;;12.13;3.30;;;;;;;7.58;100.00;103288.53;4981082;28;20443;-71
2022/01/28 11:54:00;;;;;;;12.90;3.20;;;;;;;6.86;100.00;103195.31;5018768;28;20497;-71
2022/01/28 11:56:27;;;;;;;16.83;3.30;;;;;;;7.31;100.00;103271.00;5009368;28;20191;-71
2022/01/28 11:59:08;;;;;;;12.10;3.10;;;;;;;7.47;100.00;103287.56;5011390;28;20459;-71
2022/01/28 12:01:40;;;;;;;13.10;3.03;;;;;;;7.78;100.00;103282.50;4998104;28;20443;-71
2022/01/28 12:04:24;;;;;;;12.43;3.13;;;;;;;8.01;100.00;103277.97;5015664;28;20836;-71
2022/01/28 12:07:15;;;;;;;10.83;2.57;;;;;;;7.82;100.00;103269.75;5017164;28;21151;-71
2022/01/28 12:10:01;;;;;;;13.23;2.60;;;;;;;7.90;100.00;103245.94;5011323;28;20862;-70
2022/01/28 12:12:44;;;;;;;12.43;3.00;;;;;;;8.65;100.00;103258.59;5008230;28;20443;-72
2022/01/28 12:15:15;;;;;;;15.37;3.00;;;;;;;8.23;100.00;103252.22;5007256;28;21773;-71
2022/01/28 12:17:43;;;;;;;14.73;3.90;;;;;;;8.64;100.00;103246.16;4998979;28;20501;-71
2022/01/28 12:20:15;;;;;;;14.60;3.90;;;;;;;8.79;100.00;103249.41;5009803;28;20924;-76
2022/01/28 12:22:59;;;;;;;16.10;4.20;;;;;;;8.67;100.00;103245.91;5012498;28;20488;-72
2022/01/28 12:25:43;;;;;;;10.83;2.47;;;;;;;9.01;100.00;103225.19;5004627;28;20863;-73
2022/01/28 12:28:11;;;;;;;11.97;3.20;;;;;;;8.81;100.00;103253.66;5012553;28;21111;-74
2022/01/28 12:30:37;;;;;;;13.20;3.10;;;;;;;8.60;100.00;103234.03;5010232;28;20477;-70
2022/01/28 12:33:03;;;;;;;15.43;4.07;;;;;;;7.56;100.00;103136.44;5009410;28;20955;-70
2022/01/28 12:35:28;;;;;;;11.87;3.07;;;;;;;8.78;100.00;103218.28;5010841;28;20197;-71
2022/01/28 12:37:59;;;;;;;13.37;3.20;;;;;;;8.45;100.00;103230.81;5007483;28;20455;-71
2022/01/28 12:40:35;;;;;;;13.47;3.20;;;;;;;8.70;100.00;103226.94;5007000;28;20189;-71
2022/01/28 12:43:02;;;;;;;13.20;3.00;;;;;;;8.75;100.00;103235.44;5010196;28;20442;-72
2022/01/28 12:45:27;;;;;;;13.30;2.73;;;;;;;8.19;100.00;103208.84;5011823;28;20480;-72
2022/01/28 12:47:53;;;;;;;10.40;2.87;;;;;;;7.55;100.00;103197.97;5012870;28;20510;-71
2022/01/28 12:50:20;;;;;;;12.13;3.67;;;;;;;7.96;100.00;103233.91;5016203;28;20181;-72
2022/01/28 12:52:46;;;;;;;15.87;4.20;;;;;;;8.13;100.00;103233.41;5012525;28;20447;-72